createdAt,value
2024-01-24T00:00:15.861Z,30.491000
2024-01-24T00:05:15.810Z,30.491000
2024-01-24T00:10:15.807Z,30.493000
2024-01-24T00:15:15.864Z,30.497000
2024-01-24T00:20:15.846Z,30.487000
2024-01-24T00:25:15.828Z,30.490000
2024-01-24T00:30:16.027Z,30.497000
2024-01-24T00:35:15.956Z,30.491000
2024-01-24T00:40:15.844Z,30.493000
2024-01-24T00:45:15.973Z,30.491000
2024-01-24T00:50:15.880Z,30.496000
2024-01-24T00:55:16.060Z,30.500000
2024-01-24T01:00:15.979Z,30.504000
2024-01-24T01:05:15.966Z,30.502000
2024-01-24T01:10:15.870Z,30.502000
2024-01-24T01:15:15.999Z,30.505000
2024-01-24T01:20:16.104Z,30.506000
2024-01-24T01:25:18.020Z,30.508000
2024-01-24T01:30:16.031Z,30.514000
2024-01-24T01:35:16.236Z,30.516000
2024-01-24T01:40:16.203Z,30.517000
2024-01-24T01:45:15.961Z,30.516000
2024-01-24T01:50:15.971Z,30.514000
2024-01-24T01:55:16.062Z,30.513000
2024-01-24T02:00:16.100Z,30.513000
2024-01-24T02:05:16.032Z,30.514000
2024-01-24T02:10:16.186Z,30.516000
2024-01-24T02:15:18.062Z,30.520000
2024-01-24T02:20:16.037Z,30.519000
2024-01-24T02:25:16.009Z,30.525000
2024-01-24T02:30:16.040Z,30.525000
2024-01-24T02:35:16.044Z,30.531000
2024-01-24T02:40:16.088Z,30.529000
2024-01-24T02:45:16.251Z,30.530000
2024-01-24T02:50:16.243Z,30.532000
2024-01-24T02:55:16.268Z,30.535000
2024-01-24T03:00:16.163Z,30.536000
2024-01-24T03:05:16.120Z,30.532000
2024-01-24T03:10:16.111Z,30.535000
2024-01-24T03:15:16.147Z,30.538000
2024-01-24T03:20:16.120Z,30.539000
2024-01-24T03:25:16.128Z,30.536000
2024-01-24T03:30:16.359Z,30.537000
2024-01-24T03:35:16.154Z,30.539000
2024-01-24T03:40:16.173Z,30.537000
2024-01-24T03:45:16.185Z,30.538000
2024-01-24T03:50:16.212Z,30.538000
2024-01-24T03:55:16.193Z,30.544000
2024-01-24T04:00:18.274Z,30.541000
2024-01-24T04:05:16.208Z,30.543000
2024-01-24T04:10:16.208Z,30.538000
2024-01-24T04:15:16.390Z,30.537000
2024-01-24T04:20:16.242Z,30.542000
2024-01-24T04:25:16.458Z,30.545000
2024-01-24T04:30:16.282Z,30.539000
2024-01-24T04:35:16.493Z,30.538000
2024-01-24T04:40:16.261Z,30.539000
2024-01-24T04:45:16.500Z,30.544000
2024-01-24T04:50:16.372Z,30.546000
2024-01-24T04:55:16.289Z,30.539000
2024-01-24T05:00:15.966Z,30.533000
2024-01-24T05:05:15.987Z,30.535000
2024-01-24T05:10:15.881Z,30.541000
2024-01-24T05:15:16.020Z,30.539000
2024-01-24T05:20:15.907Z,30.533000
2024-01-24T05:25:15.845Z,30.537000
2024-01-24T05:30:20.624Z,30.538000
2024-01-24T05:35:15.885Z,30.534000
2024-01-24T05:40:16.039Z,30.536000
2024-01-24T05:45:16.179Z,30.541000
2024-01-24T05:50:16.102Z,30.541000
2024-01-24T05:55:16.070Z,30.539000
2024-01-24T06:00:16.799Z,30.537000
2024-01-24T06:05:16.131Z,30.537000
2024-01-24T06:10:16.186Z,30.540000
2024-01-24T06:15:16.099Z,30.541000
2024-01-24T06:20:16.144Z,30.539000
2024-01-24T06:25:16.160Z,30.540000
2024-01-24T06:30:22.043Z,30.542000
2024-01-24T06:35:16.000Z,30.545000
2024-01-24T06:40:16.049Z,30.547000
2024-01-24T06:45:16.095Z,30.549000
2024-01-24T06:50:16.041Z,30.549000
2024-01-24T06:55:16.001Z,30.553000
2024-01-24T07:00:16.080Z,30.550000
2024-01-24T07:05:16.025Z,30.548000
2024-01-24T07:10:16.285Z,30.550000
2024-01-24T07:15:16.107Z,30.549000
2024-01-24T07:20:16.050Z,30.550000
2024-01-24T07:25:16.250Z,30.551000
2024-01-24T07:30:16.126Z,30.550000
2024-01-24T07:35:16.081Z,30.546000
2024-01-24T07:40:16.119Z,30.552000
2024-01-24T07:45:16.146Z,30.556000
2024-01-24T07:50:16.139Z,30.554000
2024-01-24T07:55:17.701Z,30.552000
2024-01-24T08:00:16.158Z,30.546000
2024-01-24T08:05:16.228Z,30.551000
2024-01-24T08:10:16.326Z,30.554000
2024-01-24T08:15:16.260Z,30.551000
2024-01-24T08:20:16.191Z,30.547000
2024-01-24T08:25:16.166Z,30.548000
2024-01-24T08:30:16.197Z,30.552000
2024-01-24T08:35:16.249Z,30.548000
2024-01-24T08:40:18.306Z,30.545000
2024-01-24T08:45:16.252Z,30.548000
2024-01-24T08:50:16.331Z,30.542000
2024-01-24T08:55:16.295Z,30.542000
2024-01-24T09:00:16.438Z,30.542000
2024-01-24T09:05:16.352Z,30.538000
2024-01-24T09:10:16.286Z,30.543000
2024-01-24T09:15:16.433Z,30.542000
2024-01-24T09:20:16.557Z,30.545000
2024-01-24T09:25:16.536Z,30.542000
2024-01-24T09:30:16.600Z,30.542000
2024-01-24T09:35:16.500Z,30.545000
2024-01-24T09:40:16.570Z,30.545000
2024-01-24T09:45:16.375Z,30.540000
2024-01-24T09:50:16.484Z,30.543000
2024-01-24T09:55:18.375Z,30.539000
2024-01-24T10:00:16.728Z,30.540000
2024-01-24T10:05:16.323Z,30.535000
2024-01-24T10:10:16.774Z,30.532000
2024-01-24T10:15:16.419Z,30.539000
2024-01-24T10:20:16.385Z,30.536000
2024-01-24T10:25:16.447Z,30.537000
2024-01-24T10:30:16.375Z,30.534000
2024-01-24T10:35:16.491Z,30.533000
2024-01-24T10:40:16.559Z,30.526000
2024-01-24T10:45:16.527Z,30.518000
2024-01-24T10:50:16.473Z,30.528000
2024-01-24T10:55:16.519Z,30.535000
2024-01-24T11:00:16.461Z,30.534000
2024-01-24T11:05:16.674Z,30.528000
2024-01-24T11:10:16.725Z,30.532000
2024-01-24T11:15:16.470Z,30.534000
2024-01-24T11:20:16.512Z,30.536000
2024-01-24T11:25:16.801Z,30.533000
2024-01-24T11:30:16.927Z,30.532000
2024-01-24T11:35:16.565Z,30.526000
2024-01-24T11:40:16.555Z,30.526000
2024-01-24T11:45:16.719Z,30.526000
2024-01-24T11:50:17.916Z,30.522000
2024-01-24T11:55:16.544Z,30.529000
2024-01-24T12:00:16.575Z,30.536000
2024-01-24T12:05:16.863Z,30.542000
2024-01-24T12:10:16.576Z,30.540000
2024-01-24T12:15:16.746Z,30.538000
2024-01-24T12:20:16.801Z,30.538000
2024-01-24T12:25:16.606Z,30.537000
2024-01-24T12:30:16.628Z,30.537000
2024-01-24T12:35:16.722Z,30.536000
2024-01-24T12:40:16.671Z,30.530000
2024-01-24T12:45:16.885Z,30.525000
2024-01-24T12:50:16.766Z,30.526000
2024-01-24T12:55:16.640Z,30.523000
2024-01-24T13:00:16.775Z,30.514000
2024-01-24T13:05:17.138Z,30.515000
2024-01-24T13:10:16.896Z,30.518000
2024-01-24T13:15:16.857Z,30.519000
2024-01-24T13:20:16.685Z,30.518000
2024-01-24T13:25:16.780Z,30.520000
2024-01-24T13:30:16.879Z,30.521000
2024-01-24T13:35:16.703Z,30.521000
2024-01-24T13:40:16.964Z,30.522000
2024-01-24T13:45:16.758Z,30.514000
2024-01-24T13:50:18.783Z,30.526000
2024-01-24T13:55:16.934Z,30.521000
2024-01-24T14:00:17.117Z,30.523000
2024-01-24T14:05:16.907Z,30.520000
2024-01-24T14:10:16.970Z,30.521000
2024-01-24T14:15:24.478Z,30.525000
2024-01-24T14:20:16.809Z,30.522000
2024-01-24T14:25:17.004Z,30.524000
2024-01-24T14:30:16.812Z,30.524000
2024-01-24T14:35:16.911Z,30.525000
2024-01-24T14:40:17.009Z,30.528000
2024-01-24T14:45:17.026Z,30.528000
2024-01-24T14:50:17.024Z,30.529000
2024-01-24T14:55:16.907Z,30.532000
2024-01-24T15:00:16.931Z,30.531000
2024-01-24T15:05:16.954Z,30.529000
2024-01-24T15:10:17.173Z,30.531000
2024-01-24T15:15:17.130Z,30.525000
2024-01-24T15:20:17.129Z,30.520000
2024-01-24T15:25:17.038Z,30.518000
2024-01-24T15:30:18.937Z,30.520000
2024-01-24T15:35:17.087Z,30.515000
2024-01-24T15:40:17.188Z,30.516000
2024-01-24T15:45:16.958Z,30.511000
2024-01-24T15:50:16.976Z,30.509000
2024-01-24T15:55:17.192Z,30.510000
2024-01-24T16:00:16.945Z,30.509000
2024-01-24T16:05:17.095Z,30.509000
2024-01-24T16:10:16.998Z,30.503000
2024-01-24T16:15:17.008Z,30.502000
2024-01-24T16:20:17.026Z,30.499000
2024-01-24T16:25:17.222Z,30.493000
2024-01-24T16:30:17.194Z,30.493000
2024-01-24T16:35:17.149Z,30.491000
2024-01-24T16:40:17.125Z,30.487000
2024-01-24T16:45:17.279Z,30.488000
2024-01-24T16:50:17.259Z,30.482000
2024-01-24T16:55:17.074Z,30.475000
2024-01-24T17:00:17.067Z,30.478000
2024-01-24T17:05:17.275Z,30.474000
2024-01-24T17:10:17.182Z,30.469000
2024-01-24T17:15:17.104Z,30.467000
2024-01-24T17:20:17.151Z,30.466000
2024-01-24T17:25:17.168Z,30.464000
2024-01-24T17:30:17.165Z,30.462000
2024-01-24T17:35:17.330Z,30.459000
2024-01-24T17:40:17.145Z,30.457000
2024-01-24T17:45:17.237Z,30.455000
2024-01-24T17:50:17.408Z,30.448000
2024-01-24T17:55:17.159Z,30.448000
2024-01-24T18:00:17.167Z,30.447000
2024-01-24T18:05:17.202Z,30.446000
2024-01-24T18:10:17.529Z,30.443000
2024-01-24T18:15:17.262Z,30.442000
2024-01-24T18:20:17.183Z,30.444000
2024-01-24T18:25:17.248Z,30.442000
2024-01-24T18:30:15.268Z,30.441000
2024-01-24T18:35:15.426Z,30.440000
2024-01-24T18:40:15.340Z,30.440000
2024-01-24T18:45:15.325Z,30.439000
2024-01-24T18:50:15.273Z,30.434000
2024-01-24T18:55:15.372Z,30.436000
2024-01-24T19:00:15.568Z,30.431000
2024-01-24T19:05:19.808Z,30.432000
2024-01-24T19:10:15.381Z,30.426000
2024-01-24T19:15:15.279Z,30.420000
2024-01-24T19:20:15.446Z,30.420000
2024-01-24T19:25:15.394Z,30.416000
2024-01-24T19:30:15.346Z,30.412000
2024-01-24T19:35:15.588Z,30.409000
2024-01-24T19:40:15.581Z,30.408000
2024-01-24T19:45:15.388Z,30.409000
2024-01-24T19:50:15.392Z,30.408000
2024-01-24T19:55:15.418Z,30.414000
2024-01-24T20:00:15.452Z,30.415000
2024-01-24T20:05:15.396Z,30.415000
2024-01-24T20:10:15.732Z,30.416000
2024-01-24T20:15:15.396Z,30.413000
2024-01-24T20:20:15.670Z,30.412000
2024-01-24T20:25:15.616Z,30.410000
2024-01-24T20:30:15.446Z,30.409000
2024-01-24T20:35:15.904Z,30.411000
2024-01-24T20:40:15.512Z,30.412000
2024-01-24T20:45:15.690Z,30.413000
2024-01-24T20:50:15.539Z,30.407000
2024-01-24T20:55:15.754Z,30.406000
2024-01-24T21:00:15.482Z,30.405000
2024-01-24T21:05:17.575Z,30.404000
2024-01-24T21:10:15.526Z,30.402000
2024-01-24T21:15:15.557Z,30.397000
2024-01-24T21:20:17.709Z,30.395000
2024-01-24T21:25:15.572Z,30.394000
2024-01-24T21:30:15.566Z,30.392000
2024-01-24T21:35:15.630Z,30.391000
2024-01-24T21:40:15.838Z,30.389000
2024-01-24T21:45:15.666Z,30.388000
2024-01-24T21:50:15.604Z,30.383000
2024-01-24T21:55:15.790Z,30.382000
2024-01-24T22:00:15.789Z,30.378000
2024-01-24T22:05:15.619Z,30.379000
2024-01-24T22:10:15.677Z,30.377000
2024-01-24T22:15:15.688Z,30.373000
2024-01-24T22:20:15.670Z,30.370000
2024-01-24T22:25:15.652Z,30.368000
2024-01-24T22:30:15.696Z,30.365000
2024-01-24T22:35:15.881Z,30.364000
2024-01-24T22:40:15.824Z,30.364000
2024-01-24T22:45:15.735Z,30.360000
2024-01-24T22:50:16.794Z,30.357000
2024-01-24T22:55:16.009Z,30.353000
2024-01-24T23:00:15.928Z,30.354000
2024-01-24T23:05:15.754Z,30.350000
2024-01-24T23:10:15.872Z,30.347000
2024-01-24T23:15:15.721Z,30.346000
2024-01-24T23:20:15.837Z,30.345000
2024-01-24T23:25:15.993Z,30.342000
2024-01-24T23:30:15.776Z,30.340000
2024-01-24T23:35:15.902Z,30.339000
2024-01-24T23:40:15.989Z,30.339000
2024-01-24T23:45:15.779Z,30.337000
2024-01-24T23:50:16.272Z,30.334000
2024-01-24T23:55:15.848Z,30.335000
